createdAt,value
2022-08-21T00:01:14.661Z,63.12
2022-08-21T00:03:46.669Z,63.00
2022-08-21T00:06:15.660Z,62.63
2022-08-21T00:08:44.771Z,62.31
2022-08-21T00:11:14.052Z,62.10
2022-08-21T00:13:43.945Z,61.95
2022-08-21T00:16:14.207Z,61.83
2022-08-21T00:18:45.134Z,61.48
2022-08-21T00:21:16.049Z,61.20
2022-08-21T00:23:47.286Z,61.24
2022-08-21T00:26:19.596Z,61.57
2022-08-21T00:28:50.235Z,61.46
2022-08-21T00:31:19.468Z,61.56
2022-08-21T00:33:50.016Z,61.59
2022-08-21T00:36:19.935Z,61.44
2022-08-21T00:38:51.697Z,61.28
2022-08-21T00:41:38.616Z,60.86
2022-08-21T00:44:12.183Z,60.67
2022-08-21T00:46:44.304Z,60.79
2022-08-21T00:49:14.574Z,60.58
2022-08-21T00:51:54.487Z,60.08
2022-08-21T00:54:27.327Z,60.18
2022-08-21T00:57:00.722Z,60.02
2022-08-21T00:59:34.976Z,59.77
2022-08-21T01:02:10.779Z,60.02
2022-08-21T01:04:43.921Z,60.57
2022-08-21T01:07:14.174Z,61.08
2022-08-21T01:09:44.710Z,61.67
2022-08-21T01:12:14.573Z,62.35
2022-08-21T01:14:45.658Z,62.62
2022-08-21T01:17:18.584Z,62.97
2022-08-21T01:19:50.525Z,62.91
2022-08-21T01:22:20.737Z,62.83
2022-08-21T01:24:50.499Z,62.71
2022-08-21T01:27:19.147Z,62.33
2022-08-21T01:29:59.811Z,62.40
2022-08-21T01:32:29.794Z,62.64
2022-08-21T01:34:59.964Z,62.13
2022-08-21T01:37:30.532Z,61.93
2022-08-21T01:40:00.128Z,62.29
2022-08-21T01:42:32.296Z,62.42
2022-08-21T01:45:04.251Z,62.23
2022-08-21T01:47:37.724Z,62.41
2022-08-21T01:50:11.414Z,62.81
2022-08-21T01:52:41.737Z,63.45
2022-08-21T01:55:13.022Z,63.59
2022-08-21T01:57:45.561Z,63.69
2022-08-21T02:00:24.091Z,64.04
2022-08-21T02:02:53.583Z,63.69
2022-08-21T02:05:22.699Z,63.97
2022-08-21T02:07:54.531Z,63.99
2022-08-21T02:10:30.004Z,64.20
2022-08-21T02:13:02.027Z,64.11
2022-08-21T02:15:33.636Z,65.21
2022-08-21T02:18:06.269Z,66.42
2022-08-21T02:20:39.832Z,67.40
2022-08-21T02:23:10.849Z,68.70
2022-08-21T02:25:39.934Z,70.99
2022-08-21T02:28:12.183Z,73.52
2022-08-21T02:30:45.267Z,74.96
2022-08-21T02:33:14.847Z,75.47
2022-08-21T02:35:45.370Z,76.10
2022-08-21T02:38:18.938Z,77.26
2022-08-21T02:40:50.916Z,77.35
2022-08-21T02:43:23.143Z,77.04
2022-08-21T02:45:54.670Z,78.18
2022-08-21T02:48:27.073Z,79.90
2022-08-21T02:50:59.148Z,79.93
2022-08-21T02:53:29.606Z,80.56
2022-08-21T02:56:02.591Z,80.57
2022-08-21T02:58:39.858Z,81.24
2022-08-21T03:01:12.186Z,80.80
2022-08-21T03:03:44.567Z,81.23
2022-08-21T03:06:16.862Z,81.93
2022-08-21T03:08:46.398Z,82.73
2022-08-21T03:11:17.451Z,82.68
2022-08-21T03:13:45.963Z,82.55
2022-08-21T03:16:16.200Z,84.08
2022-08-21T03:18:46.738Z,83.76
2022-08-21T03:21:15.276Z,83.99
2022-08-21T03:23:44.218Z,84.53
2022-08-21T03:26:12.837Z,83.87
2022-08-21T03:28:41.209Z,83.56
2022-08-21T03:31:11.623Z,83.59
2022-08-21T03:33:41.591Z,83.07
2022-08-21T03:36:11.204Z,83.01
2022-08-21T03:38:40.643Z,82.72
2022-08-21T03:41:09.971Z,82.59
2022-08-21T03:43:39.739Z,83.06
2022-08-21T03:46:08.540Z,82.74
2022-08-21T03:48:38.523Z,82.88
2022-08-21T03:51:08.699Z,83.40
2022-08-21T03:53:40.287Z,84.47
2022-08-21T03:56:09.137Z,84.58
2022-08-21T03:58:39.511Z,85.23
2022-08-21T04:01:09.145Z,85.26
2022-08-21T04:03:39.173Z,85.71
2022-08-21T04:06:10.971Z,85.96
2022-08-21T04:08:41.665Z,85.03
2022-08-21T04:11:13.309Z,84.67
2022-08-21T04:13:50.178Z,84.47
2022-08-21T04:16:19.457Z,84.74
2022-08-21T04:18:48.738Z,84.88
2022-08-21T04:21:18.048Z,84.45
2022-08-21T04:23:49.318Z,84.83
2022-08-21T04:26:18.426Z,84.39
2022-08-21T04:28:47.844Z,84.47
2022-08-21T04:31:16.859Z,84.62
2022-08-21T04:33:46.243Z,85.35
2022-08-21T04:36:14.781Z,85.29
2022-08-21T04:38:44.622Z,84.52
2022-08-21T04:41:15.839Z,84.68
2022-08-21T04:43:44.853Z,85.98
2022-08-21T04:46:14.066Z,85.29
2022-08-21T04:48:42.861Z,85.19
2022-08-21T04:51:19.617Z,84.94
2022-08-21T04:53:57.563Z,84.81
2022-08-21T04:56:37.574Z,84.86
2022-08-21T04:59:32.234Z,83.81
2022-08-21T05:02:02.853Z,83.69
2022-08-21T05:04:35.430Z,83.62
2022-08-21T05:07:08.514Z,83.53
2022-08-21T05:09:39.469Z,83.34
2022-08-21T05:12:09.353Z,82.90
2022-08-21T05:14:39.260Z,83.38
2022-08-21T05:17:08.298Z,82.75
2022-08-21T05:19:37.245Z,81.87
2022-08-21T05:22:05.877Z,82.09
2022-08-21T05:24:34.925Z,82.36
2022-08-21T05:27:03.767Z,82.88
2022-08-21T05:29:33.396Z,83.41
2022-08-21T05:32:02.942Z,82.23
2022-08-21T05:34:31.616Z,81.66
2022-08-21T05:37:05.594Z,82.48
2022-08-21T05:40:20.257Z,83.09
2022-08-21T05:42:25.757Z,82.47
2022-08-21T05:44:55.715Z,81.62
2022-08-21T05:47:24.809Z,81.25
2022-08-21T05:49:53.395Z,81.34
2022-08-21T05:52:23.478Z,81.84
2022-08-21T05:54:55.008Z,81.88
2022-08-21T05:57:25.349Z,81.85
2022-08-21T05:59:54.299Z,81.82
2022-08-21T06:02:24.292Z,82.40
2022-08-21T06:04:53.345Z,82.43
2022-08-21T06:07:22.153Z,83.32
2022-08-21T06:09:53.977Z,84.28
2022-08-21T06:12:23.210Z,84.89
2022-08-21T06:14:53.306Z,85.26
2022-08-21T06:17:24.402Z,84.75
2022-08-21T06:19:54.268Z,84.53
2022-08-21T06:22:23.224Z,85.12
2022-08-21T06:24:53.557Z,85.24
2022-08-21T06:27:26.081Z,84.39
2022-08-21T06:29:58.676Z,84.41
2022-08-21T06:32:27.215Z,84.30
2022-08-21T06:34:55.778Z,84.12
2022-08-21T06:37:26.650Z,84.61
2022-08-21T06:39:56.097Z,84.72
2022-08-21T06:42:27.915Z,84.86
2022-08-21T06:44:58.479Z,85.00
2022-08-21T06:47:28.480Z,85.48
2022-08-21T06:49:57.281Z,85.82
2022-08-21T06:52:26.831Z,86.07
2022-08-21T06:54:55.631Z,85.94
2022-08-21T06:57:26.973Z,85.78
2022-08-21T06:59:55.552Z,85.49
2022-08-21T07:02:24.061Z,85.84
2022-08-21T07:04:54.006Z,85.88
2022-08-21T07:07:24.075Z,85.25
2022-08-21T07:09:54.842Z,85.52
2022-08-21T07:12:23.365Z,85.15
2022-08-21T07:14:53.229Z,84.74
2022-08-21T07:17:22.188Z,83.77
2022-08-21T07:19:52.880Z,84.18
2022-08-21T07:22:22.457Z,84.46
2022-08-21T07:24:52.572Z,84.25
2022-08-21T07:27:22.181Z,83.73
2022-08-21T07:29:51.312Z,83.64
2022-08-21T07:32:21.486Z,82.80
2022-08-21T07:34:51.892Z,82.70
2022-08-21T07:37:21.903Z,81.30
2022-08-21T07:39:52.785Z,82.00
2022-08-21T07:42:25.367Z,81.45
2022-08-21T07:44:57.888Z,82.24
2022-08-21T07:47:42.571Z,82.63
2022-08-21T07:50:13.798Z,82.73
2022-08-21T09:36:49.850Z,63.94
2022-08-21T09:39:28.507Z,64.09
2022-08-21T09:42:03.856Z,63.11
2022-08-21T09:44:41.960Z,61.90
2022-08-21T09:47:16.275Z,61.64
2022-08-21T09:49:44.604Z,62.28
2022-08-21T09:52:32.161Z,61.76
2022-08-21T09:55:02.145Z,62.37
2022-08-21T09:57:50.631Z,61.54
2022-08-21T10:00:30.942Z,57.42
2022-08-21T10:03:22.050Z,59.07
2022-08-21T10:06:09.263Z,58.62
2022-08-21T10:08:40.564Z,59.00
2022-08-21T10:11:14.528Z,58.70
2022-08-21T10:13:57.927Z,56.28
2022-08-21T10:16:34.542Z,55.23
2022-08-21T10:19:24.997Z,53.35
2022-08-21T10:22:19.812Z,54.16
2022-08-21T10:24:57.598Z,53.33
2022-08-21T10:27:39.019Z,52.77
2022-08-21T10:30:20.663Z,51.05
2022-08-21T10:33:20.352Z,52.27
2022-08-21T10:36:27.770Z,50.66
2022-08-21T10:42:05.475Z,47.39
2022-08-21T10:44:47.518Z,46.95
2022-08-21T10:47:35.945Z,46.63
2022-08-21T10:50:28.135Z,47.36
2022-08-21T10:53:28.099Z,47.62
2022-08-21T10:56:18.345Z,46.28
2022-08-21T10:59:01.382Z,46.78
2022-08-21T11:01:40.064Z,45.85
2022-08-21T11:04:21.908Z,46.61
2022-08-21T11:07:00.342Z,47.27
2022-08-21T11:09:35.840Z,46.86
2022-08-21T11:12:42.964Z,45.60
2022-08-21T11:15:29.093Z,43.54
2022-08-21T11:18:26.486Z,44.89
2022-08-21T11:21:02.856Z,46.01
2022-08-21T11:23:48.955Z,45.43
2022-08-21T11:26:43.183Z,44.57
2022-08-21T11:29:20.583Z,44.89
2022-08-21T11:32:16.307Z,44.72
2022-08-21T11:34:58.528Z,45.11
2022-08-21T11:37:48.626Z,46.57
2022-08-21T11:40:41.249Z,47.66
2022-08-21T11:43:44.289Z,48.38
2022-08-21T11:46:41.442Z,49.82
2022-08-21T11:49:21.418Z,49.71
2022-08-21T11:52:21.887Z,50.34
2022-08-21T11:55:13.526Z,51.77
2022-08-21T11:57:56.012Z,51.78
2022-08-21T12:00:51.752Z,50.29
2022-08-21T12:03:35.601Z,50.71
2022-08-21T12:06:12.030Z,50.37
2022-08-21T12:08:47.428Z,50.20
2022-08-21T12:11:18.702Z,51.72
2022-08-21T12:14:19.435Z,53.70
2022-08-21T12:16:51.064Z,53.62
2022-08-21T12:19:26.539Z,54.26
2022-08-21T12:22:14.885Z,54.34
2022-08-21T12:24:45.318Z,55.47
2022-08-21T12:27:31.892Z,55.23
2022-08-21T12:30:04.812Z,55.22
2022-08-21T12:32:42.624Z,55.47
2022-08-21T12:35:25.412Z,56.05
2022-08-21T12:38:06.964Z,57.28
2022-08-21T12:40:44.483Z,56.71
2022-08-21T12:43:31.789Z,56.76
2022-08-21T12:46:02.752Z,56.95
2022-08-21T12:48:46.528Z,56.24
2022-08-21T12:51:24.558Z,56.41
2022-08-21T12:53:58.511Z,56.73
2022-08-21T12:56:32.081Z,56.52
2022-08-21T12:59:09.472Z,57.04
2022-08-21T13:01:46.684Z,57.55
2022-08-21T13:04:23.534Z,57.50
2022-08-21T13:06:55.578Z,58.05
2022-08-21T13:09:33.145Z,57.61
2022-08-21T13:12:03.782Z,57.12
2022-08-21T13:14:45.976Z,58.70
2022-08-21T13:17:23.568Z,58.39
2022-08-21T13:20:04.071Z,58.28
2022-08-21T13:22:40.599Z,58.59
2022-08-21T13:25:16.782Z,57.90
2022-08-21T13:28:12.616Z,56.89
2022-08-21T13:30:47.457Z,56.69
2022-08-21T13:33:19.976Z,55.29
2022-08-21T13:36:21.074Z,54.65
2022-08-21T13:38:54.702Z,55.17
2022-08-21T13:41:28.659Z,54.04
2022-08-21T13:44:02.901Z,54.35
2022-08-21T13:46:35.612Z,54.96
2022-08-21T13:49:08.767Z,56.45
2022-08-21T13:51:38.337Z,56.45
2022-08-21T13:54:23.855Z,56.22
2022-08-21T13:56:52.398Z,55.46
2022-08-21T13:59:39.922Z,54.82
2022-08-21T14:02:19.488Z,53.28
2022-08-21T14:05:01.904Z,53.45
2022-08-21T14:07:36.800Z,53.87
2022-08-21T14:10:16.563Z,54.09
2022-08-21T14:12:48.515Z,53.52
2022-08-21T14:15:21.077Z,52.54
2022-08-21T14:17:50.198Z,52.63
2022-08-21T14:20:32.206Z,53.59
2022-08-21T14:23:01.447Z,54.21
2022-08-21T14:25:43.647Z,53.86
2022-08-21T14:28:19.592Z,54.67
2022-08-21T14:30:51.505Z,54.12
2022-08-21T14:33:34.030Z,53.40
2022-08-21T14:36:03.847Z,53.59
2022-08-21T14:38:33.549Z,53.28
2022-08-21T14:41:14.466Z,53.81
2022-08-21T14:43:45.656Z,54.33
2022-08-21T14:46:30.539Z,53.85
2022-08-21T14:49:00.250Z,53.55
2022-08-21T14:51:29.933Z,53.39
2022-08-21T14:53:58.990Z,53.39
2022-08-21T14:56:30.731Z,53.46
2022-08-21T14:59:09.103Z,53.56
2022-08-21T15:01:40.403Z,54.54
2022-08-21T15:04:10.607Z,54.39
2022-08-21T15:06:40.777Z,54.38
2022-08-21T15:09:09.818Z,54.39
2022-08-21T15:11:41.990Z,54.22
2022-08-21T15:14:27.013Z,54.69
2022-08-21T15:16:56.337Z,55.54
2022-08-21T15:19:26.290Z,54.99
2022-08-21T15:21:55.161Z,55.57
2022-08-21T15:24:27.195Z,55.93
2022-08-21T15:26:56.583Z,56.28
2022-08-21T15:29:34.530Z,56.58
2022-08-21T15:32:19.239Z,56.21
2022-08-21T15:34:48.880Z,56.05
2022-08-21T15:37:17.493Z,56.50
2022-08-21T15:39:52.212Z,57.12
2022-08-21T15:42:24.017Z,57.78
2022-08-21T15:44:55.104Z,58.38
2022-08-21T15:47:29.800Z,59.06
2022-08-21T15:49:58.631Z,58.66
2022-08-21T15:52:27.820Z,58.70
2022-08-21T15:54:57.237Z,58.51
2022-08-21T15:57:28.538Z,58.98
2022-08-21T16:00:12.998Z,59.27
2022-08-21T16:02:46.154Z,59.67
2022-08-21T16:05:18.292Z,60.02
2022-08-21T16:07:48.447Z,60.60
2022-08-21T16:10:20.398Z,60.85
2022-08-21T16:12:53.520Z,60.71
2022-08-21T16:15:22.312Z,61.24
2022-08-21T16:17:53.215Z,61.87
2022-08-21T16:20:28.360Z,62.06
2022-08-21T16:22:58.726Z,61.54
2022-08-21T16:25:27.772Z,61.62
2022-08-21T16:28:02.716Z,61.88
2022-08-21T16:30:32.029Z,61.28
2022-08-21T16:33:03.329Z,61.43
2022-08-21T16:35:33.745Z,61.59
2022-08-21T16:38:02.524Z,61.85
2022-08-21T16:40:31.007Z,61.59
2022-08-21T16:43:01.133Z,62.19
2022-08-21T16:45:33.445Z,62.85
2022-08-21T16:48:04.723Z,62.74
2022-08-21T16:50:36.377Z,63.65
2022-08-21T16:53:07.053Z,63.63
2022-08-21T16:55:37.998Z,63.86
2022-08-21T16:58:30.276Z,63.79
2022-08-21T17:01:05.191Z,64.44
2022-08-21T17:03:39.422Z,65.31
2022-08-21T17:06:10.140Z,67.01
2022-08-21T17:08:42.197Z,67.01
2022-08-21T17:11:46.236Z,67.67
2022-08-21T17:14:23.853Z,68.02
2022-08-21T17:16:56.098Z,69.53
2022-08-21T17:19:28.580Z,70.48
2022-08-21T17:21:57.365Z,70.64
2022-08-21T17:24:27.107Z,70.34
2022-08-21T17:26:56.484Z,70.59
2022-08-21T17:29:30.243Z,70.49
2022-08-21T17:31:59.332Z,71.20
2022-08-21T17:34:31.831Z,71.44
2022-08-21T17:37:02.264Z,71.65
2022-08-21T17:39:30.787Z,71.21
2022-08-21T17:42:04.660Z,71.47
2022-08-21T17:44:33.492Z,71.83
2022-08-21T17:47:02.424Z,72.20
2022-08-21T17:49:31.589Z,73.12
2022-08-21T17:52:01.119Z,73.64
2022-08-21T17:54:30.232Z,74.16
2022-08-21T17:56:58.787Z,74.65
2022-08-21T17:59:28.271Z,75.82
2022-08-21T18:02:02.672Z,76.11
2022-08-21T18:04:33.941Z,76.35
2022-08-21T18:07:04.202Z,76.46
2022-08-21T18:09:32.867Z,76.35
2022-08-21T18:12:01.699Z,76.04
2022-08-21T18:14:34.481Z,76.61
2022-08-21T18:17:09.577Z,75.88
2022-08-21T18:19:44.102Z,77.56
2022-08-21T18:22:18.762Z,77.83
2022-08-21T18:24:47.258Z,78.14
2022-08-21T18:27:17.608Z,78.58
2022-08-21T18:29:48.782Z,78.61
2022-08-21T18:32:30.689Z,79.10
2022-08-21T18:35:06.393Z,79.90
2022-08-21T18:37:37.159Z,80.66
2022-08-21T18:40:09.032Z,80.57
2022-08-21T18:42:58.544Z,81.08
2022-08-21T18:45:28.939Z,80.36
2022-08-21T18:48:02.163Z,79.72
2022-08-21T18:50:30.678Z,79.60
2022-08-21T18:52:59.620Z,79.58
2022-08-21T18:55:29.825Z,79.36
2022-08-21T18:57:59.337Z,80.13
2022-08-21T19:00:36.003Z,80.83
2022-08-21T19:03:08.077Z,80.54
2022-08-21T19:05:36.860Z,80.32
2022-08-21T19:08:09.629Z,79.80
2022-08-21T19:10:45.659Z,79.81
2022-08-21T19:13:18.332Z,79.72
2022-08-21T19:15:50.436Z,79.49
2022-08-21T19:18:28.051Z,80.51
2022-08-21T19:20:57.508Z,81.23
2022-08-21T19:23:29.668Z,81.27
2022-08-21T19:26:05.092Z,80.75
2022-08-21T19:28:41.147Z,80.44
2022-08-21T19:31:19.651Z,81.12
2022-08-21T19:34:01.597Z,80.79
2022-08-21T19:36:32.779Z,80.85
2022-08-21T19:39:01.623Z,80.91
2022-08-21T19:41:42.731Z,80.49
2022-08-21T19:44:18.011Z,80.37
2022-08-21T19:46:52.959Z,80.26
2022-08-21T19:49:29.224Z,80.18
2022-08-21T19:54:53.412Z,81.24
2022-08-21T19:57:24.340Z,81.15
2022-08-21T19:59:53.218Z,80.61
2022-08-21T20:02:25.352Z,80.68
2022-08-21T20:04:56.750Z,81.19
2022-08-21T20:07:26.957Z,81.06
2022-08-21T20:09:57.163Z,81.16
2022-08-21T20:12:30.922Z,81.36
2022-08-21T20:15:00.678Z,81.52
2022-08-21T20:17:30.452Z,81.57
2022-08-21T20:20:00.351Z,81.48
2022-08-21T20:22:30.129Z,81.53
2022-08-21T20:24:58.687Z,81.80
2022-08-21T20:27:31.084Z,81.60
2022-08-21T20:30:07.155Z,81.11
2022-08-21T20:32:36.074Z,81.00
2022-08-21T20:35:12.424Z,80.98
2022-08-21T20:37:42.551Z,80.84
2022-08-21T20:40:13.889Z,80.73
2022-08-21T20:42:47.561Z,80.34
2022-08-21T20:45:26.513Z,79.80
2022-08-21T20:48:01.788Z,79.87
2022-08-21T20:50:34.892Z,80.52
2022-08-21T20:53:27.657Z,80.40
2022-08-21T20:56:21.282Z,80.39
2022-08-21T20:59:01.768Z,80.35
2022-08-21T21:01:34.704Z,80.23
2022-08-21T21:04:24.801Z,80.06
2022-08-21T21:06:58.974Z,80.40
2022-08-21T21:12:40.512Z,80.42
2022-08-21T21:15:27.945Z,80.18
2022-08-21T21:18:02.462Z,80.59
2022-08-21T21:20:38.422Z,80.33
2022-08-21T21:23:29.390Z,79.99
2022-08-21T21:26:06.457Z,79.49
2022-08-21T21:29:01.507Z,79.10
2022-08-21T21:31:33.117Z,78.96
2022-08-21T21:34:01.768Z,79.08
2022-08-21T21:36:43.882Z,79.08
2022-08-21T21:39:38.456Z,78.59
2022-08-21T21:45:30.019Z,78.26
2022-08-21T21:48:09.356Z,78.73
2022-08-21T21:51:01.079Z,79.05
2022-08-21T21:54:13.564Z,79.40
2022-08-21T21:57:00.686Z,80.19
2022-08-21T21:59:32.181Z,81.13
2022-08-21T22:02:09.626Z,82.29
2022-08-21T22:05:00.203Z,82.76
2022-08-21T22:07:47.608Z,82.10
2022-08-21T22:10:30.653Z,81.85
2022-08-21T22:13:26.257Z,81.82
2022-08-21T22:15:56.478Z,81.92
2022-08-21T22:18:33.744Z,82.09
2022-08-21T22:21:10.687Z,81.43
2022-08-21T22:23:52.854Z,81.73
2022-08-21T22:26:33.921Z,82.56
2022-08-21T22:29:05.621Z,82.67
2022-08-21T22:31:35.496Z,83.85
2022-08-21T22:34:19.423Z,83.65
2022-08-21T22:37:19.462Z,83.36
2022-08-21T22:39:54.770Z,83.08
2022-08-21T22:42:27.626Z,82.99
2022-08-21T22:45:02.141Z,82.66
2022-08-21T22:47:37.478Z,83.08
2022-08-21T22:50:26.213Z,83.20
2022-08-21T22:53:12.263Z,83.09
2022-08-21T22:55:55.475Z,83.28
2022-08-21T22:58:40.968Z,83.40
2022-08-21T23:01:21.577Z,83.45
2022-08-21T23:03:57.177Z,83.96
2022-08-21T23:06:28.881Z,83.68
2022-08-21T23:11:51.007Z,84.61
2022-08-21T23:14:20.020Z,84.76
2022-08-21T23:16:54.708Z,84.97
2022-08-21T23:19:57.031Z,85.44
2022-08-21T23:22:54.464Z,85.05
2022-08-21T23:25:54.992Z,84.47
2022-08-21T23:28:32.031Z,84.35
2022-08-21T23:31:26.849Z,83.93
2022-08-21T23:34:15.868Z,83.25
2022-08-21T23:37:13.046Z,82.50
2022-08-21T23:39:55.230Z,81.96
2022-08-21T23:42:45.592Z,81.55
2022-08-21T23:45:38.090Z,81.05
2022-08-21T23:48:29.528Z,80.70
2022-08-21T23:51:09.465Z,80.71
2022-08-21T23:54:22.683Z,80.28
2022-08-21T23:57:12.398Z,80.12
2022-08-21T23:59:43.489Z,80.36
